createdAt,value
2022-11-12T00:02:12.008Z,4.04
2022-11-12T00:05:11.208Z,4.03
2022-11-12T00:08:09.962Z,4.01
2022-11-12T00:11:11.064Z,3.99
2022-11-12T00:14:11.586Z,3.98
2022-11-12T00:17:10.168Z,3.95
2022-11-12T00:20:30.397Z,3.92
2022-11-12T00:23:42.815Z,3.90
2022-11-12T00:26:41.427Z,3.88
2022-11-12T00:29:40.519Z,3.85
2022-11-12T00:32:39.419Z,3.82
2022-11-12T00:35:38.387Z,3.82
2022-11-12T00:38:39.421Z,3.78
2022-11-12T00:41:58.815Z,3.78
2022-11-12T00:44:59.837Z,3.75
2022-11-12T00:48:19.233Z,3.71
2022-11-12T00:51:18.344Z,3.69
2022-11-12T00:54:17.275Z,3.69
2022-11-12T00:57:16.260Z,3.66
2022-11-12T01:00:16.499Z,3.63
2022-11-12T01:03:15.870Z,3.60
2022-11-12T01:06:25.292Z,3.58
2022-11-12T01:09:23.704Z,3.57
2022-11-12T01:12:24.730Z,3.53
2022-11-12T01:15:24.325Z,3.50
2022-11-12T01:18:26.148Z,3.47
2022-11-12T01:21:29.344Z,3.45
2022-11-12T01:24:28.400Z,3.46
2022-11-12T01:27:27.451Z,3.43
2022-11-12T01:30:40.109Z,3.41
2022-11-12T01:33:38.746Z,3.38
2022-11-12T01:36:40.058Z,3.39
2022-11-12T01:39:40.348Z,3.39
2022-11-12T01:42:40.941Z,3.38
2022-11-12T01:45:39.568Z,3.36
2022-11-12T01:48:39.512Z,3.36
2022-11-12T01:51:39.973Z,3.35
2022-11-12T01:54:54.068Z,3.34
2022-11-12T01:58:09.936Z,3.30
2022-11-12T02:01:09.359Z,3.28
2022-11-12T02:04:08.364Z,3.26
2022-11-12T02:07:07.445Z,3.23
2022-11-12T02:10:09.568Z,3.17
2022-11-12T02:13:26.086Z,3.16
2022-11-12T02:16:35.832Z,3.15
2022-11-12T02:19:33.676Z,3.11
2022-11-12T02:22:32.987Z,3.05
2022-11-12T02:25:32.096Z,3.07
2022-11-12T02:28:31.410Z,3.03
2022-11-12T02:31:30.140Z,2.99
2022-11-12T02:34:30.999Z,2.97
2022-11-12T02:37:29.598Z,2.93
2022-11-12T02:40:30.599Z,2.91
2022-11-12T02:43:29.336Z,2.90
2022-11-12T02:46:31.236Z,2.86
2022-11-12T02:49:32.387Z,2.83
2022-11-12T02:52:33.280Z,2.81
2022-11-12T02:55:33.638Z,2.79
2022-11-12T02:58:32.407Z,2.76
2022-11-12T03:01:33.365Z,2.76
2022-11-12T03:04:33.868Z,2.75
2022-11-12T03:07:34.473Z,2.73
2022-11-12T03:10:33.268Z,2.72
2022-11-12T03:13:34.120Z,2.71
2022-11-12T03:16:32.712Z,2.70
2022-11-12T03:19:31.749Z,2.68
2022-11-12T03:22:30.683Z,2.66
2022-11-12T03:25:30.037Z,2.64
2022-11-12T03:28:29.134Z,2.64
2022-11-12T03:31:29.316Z,2.64
2022-11-12T03:34:28.312Z,2.63
2022-11-12T03:37:27.322Z,2.63
2022-11-12T03:40:26.548Z,2.64
2022-11-12T03:43:24.563Z,2.64
2022-11-12T03:46:24.348Z,2.61
2022-11-12T03:49:25.362Z,2.59
2022-11-12T03:52:25.008Z,2.58
2022-11-12T03:55:25.006Z,2.56
2022-11-12T03:58:25.912Z,2.53
2022-11-12T04:01:25.809Z,2.51
2022-11-12T04:04:45.980Z,2.51
2022-11-12T04:08:02.194Z,2.48
2022-11-12T04:11:01.209Z,2.47
2022-11-12T04:14:02.369Z,2.46
2022-11-12T04:17:20.371Z,2.42
2022-11-12T04:20:36.644Z,2.40
2022-11-12T04:23:35.680Z,2.39
2022-11-12T04:26:36.662Z,2.38
2022-11-12T04:29:52.898Z,2.35
2022-11-12T04:32:54.615Z,2.33
2022-11-12T04:35:54.059Z,2.31
2022-11-12T04:38:53.078Z,2.31
2022-11-12T04:42:11.527Z,2.28
2022-11-12T04:45:13.324Z,2.25
2022-11-12T04:48:14.552Z,2.25
2022-11-12T04:51:29.107Z,2.23
2022-11-12T04:54:28.103Z,2.20
2022-11-12T04:57:29.131Z,2.13
2022-11-12T05:00:41.112Z,2.13
2022-11-12T05:03:40.100Z,2.13
2022-11-12T05:07:03.065Z,2.10
2022-11-12T05:10:22.339Z,2.02
2022-11-12T05:13:23.931Z,1.99
2022-11-12T05:16:22.566Z,1.97
2022-11-12T05:19:23.592Z,1.96
2022-11-12T05:22:42.651Z,1.95
2022-11-12T05:25:42.004Z,1.95
2022-11-12T05:28:42.053Z,1.97
2022-11-12T05:31:41.680Z,1.95
2022-11-12T05:34:40.602Z,1.91
2022-11-12T05:37:40.621Z,1.89
2022-11-12T05:40:45.074Z,1.85
2022-11-12T05:43:46.024Z,1.85
2022-11-12T05:46:46.624Z,1.84
2022-11-12T05:49:45.247Z,1.83
2022-11-12T05:52:46.279Z,1.81
2022-11-12T05:55:46.839Z,1.78
2022-11-12T05:58:46.459Z,1.78
2022-11-12T06:01:48.046Z,1.74
2022-11-12T06:05:07.837Z,1.72
2022-11-12T06:08:06.823Z,1.71
2022-11-12T06:11:07.498Z,1.63
2022-11-12T06:14:06.485Z,1.66
2022-11-12T06:17:07.100Z,1.68
2022-11-12T06:20:06.264Z,1.68
2022-11-12T06:23:04.819Z,1.69
2022-11-12T06:26:04.161Z,1.69
2022-11-12T06:29:44.922Z,1.71
2022-11-12T06:32:42.015Z,1.70
2022-11-12T06:35:43.481Z,1.69
2022-11-12T06:38:57.335Z,1.70
2022-11-12T06:41:55.971Z,1.70
2022-11-12T06:44:56.911Z,1.69
2022-11-12T06:47:55.920Z,1.68
2022-11-12T06:50:57.811Z,1.69
2022-11-12T06:53:56.862Z,1.71
2022-11-12T06:56:55.728Z,1.72
2022-11-12T06:59:55.720Z,1.71
2022-11-12T07:02:55.345Z,1.71
2022-11-12T07:05:54.694Z,1.68
2022-11-12T07:08:53.343Z,1.69
2022-11-12T07:12:02.242Z,1.71
2022-11-12T07:15:03.185Z,1.73
2022-11-12T07:18:03.802Z,1.77
2022-11-12T07:21:05.369Z,1.78
2022-11-12T07:24:06.923Z,1.83
2022-11-12T07:27:06.820Z,1.85
2022-11-12T07:30:08.670Z,1.88
2022-11-12T07:33:10.004Z,1.94
2022-11-12T07:36:11.471Z,1.98
2022-11-12T07:39:10.827Z,2.03
2022-11-12T07:42:12.474Z,2.08
2022-11-12T07:45:12.327Z,2.15
2022-11-12T07:48:13.059Z,2.20
2022-11-12T07:51:12.626Z,2.34
2022-11-12T07:54:14.342Z,2.40
2022-11-12T07:57:12.898Z,2.48
2022-11-12T08:00:13.126Z,2.59
2022-11-12T08:03:14.502Z,2.68
2022-11-12T08:06:13.091Z,2.76
2022-11-12T08:09:12.150Z,2.87
2022-11-12T08:12:11.123Z,2.97
2022-11-12T08:15:10.564Z,3.06
2022-11-12T08:18:09.216Z,3.17
2022-11-12T08:21:08.743Z,3.24
2022-11-12T08:24:07.551Z,3.35
2022-11-12T08:27:06.146Z,3.45
2022-11-12T08:30:05.638Z,3.56
2022-11-12T08:33:06.797Z,3.69
2022-11-12T08:36:09.422Z,3.81
2022-11-12T08:39:09.015Z,3.94
2022-11-12T08:42:28.488Z,4.09
2022-11-12T08:45:29.585Z,4.21
2022-11-12T08:48:30.487Z,4.38
2022-11-12T08:51:31.584Z,4.51
2022-11-12T08:54:30.982Z,4.68
2022-11-12T08:57:30.074Z,4.84
2022-11-12T09:00:29.076Z,4.99
2022-11-12T09:03:28.023Z,5.13
2022-11-12T09:06:27.124Z,5.30
2022-11-12T09:09:26.056Z,5.43
2022-11-12T09:12:25.107Z,5.58
2022-11-12T09:15:41.187Z,5.61
2022-11-12T09:18:38.718Z,5.79
2022-11-12T09:21:40.174Z,5.91
2022-11-12T09:24:42.344Z,6.08
2022-11-12T09:27:45.732Z,6.21
2022-11-12T09:30:48.443Z,6.32
2022-11-12T09:33:48.563Z,6.47
2022-11-12T09:36:47.592Z,6.64
2022-11-12T09:39:44.644Z,6.76
2022-11-12T09:42:43.773Z,6.86
2022-11-12T09:45:50.390Z,7.00
2022-11-12T09:49:02.861Z,7.06
2022-11-12T09:52:23.527Z,7.26
2022-11-12T09:55:24.669Z,7.42
2022-11-12T09:58:26.224Z,7.60
2022-11-12T10:01:31.999Z,7.75
2022-11-12T10:04:38.280Z,7.88
2022-11-12T10:07:43.427Z,8.05
2022-11-12T10:10:45.251Z,8.20
2022-11-12T10:13:58.444Z,8.30
2022-11-12T10:16:58.833Z,8.48
2022-11-12T10:20:02.165Z,8.59
2022-11-12T10:23:05.684Z,8.72
2022-11-12T10:26:10.154Z,8.89
2022-11-12T10:29:13.896Z,9.02
2022-11-12T10:32:15.210Z,9.16
2022-11-12T10:35:15.665Z,9.29
2022-11-12T10:40:53.547Z,9.56
2022-11-12T10:43:59.130Z,9.71
2022-11-12T10:47:17.301Z,9.86
2022-11-12T10:50:21.639Z,9.99
2022-11-12T10:53:33.974Z,10.18
2022-11-12T10:56:34.604Z,10.34
2022-11-12T10:59:33.649Z,10.44
2022-11-12T11:02:34.411Z,10.58
2022-11-12T11:05:35.260Z,10.71
2022-11-12T11:08:44.063Z,10.84
2022-11-12T11:12:06.716Z,10.93
2022-11-12T11:15:20.029Z,11.08
2022-11-12T11:18:18.473Z,11.27
2022-11-12T11:21:44.443Z,11.48
2022-11-12T11:24:50.176Z,11.70
2022-11-12T11:27:58.521Z,11.98
2022-11-12T11:31:03.334Z,12.34
2022-11-12T11:34:12.324Z,12.68
2022-11-12T11:37:28.994Z,12.91
2022-11-12T11:40:31.222Z,13.19
2022-11-12T11:43:41.712Z,13.33
2022-11-12T11:46:50.264Z,13.58
2022-11-12T11:50:00.031Z,13.85
2022-11-12T11:53:06.841Z,14.04
2022-11-12T11:56:10.536Z,14.09
2022-11-12T11:59:23.271Z,14.10
2022-11-12T12:02:40.101Z,14.14
2022-11-12T12:05:44.841Z,14.22
2022-11-12T12:08:53.770Z,14.12
2022-11-12T12:12:01.945Z,14.24
2022-11-12T12:15:17.364Z,14.20
2022-11-12T12:18:23.587Z,14.24
2022-11-12T12:21:25.948Z,14.20
2022-11-12T12:24:26.956Z,14.19
2022-11-12T12:27:28.678Z,14.19
2022-11-12T12:30:30.594Z,14.01
2022-11-12T12:33:33.757Z,13.87
2022-11-12T12:36:36.273Z,13.88
2022-11-12T12:39:46.590Z,13.93
2022-11-12T12:42:52.225Z,13.84
2022-11-12T12:45:50.668Z,13.88
2022-11-12T12:48:51.621Z,13.88
2022-11-12T12:51:55.462Z,13.87
2022-11-12T12:54:58.951Z,13.89
2022-11-12T12:58:00.943Z,13.89
2022-11-12T13:01:31.265Z,13.89
2022-11-12T13:04:52.785Z,13.94
2022-11-12T13:07:54.090Z,13.89
2022-11-12T13:10:54.347Z,13.87
2022-11-12T13:13:53.691Z,13.90
2022-11-12T13:17:01.430Z,13.88
2022-11-12T13:20:33.423Z,13.84
2022-11-12T13:24:05.468Z,13.83
2022-11-12T13:27:03.935Z,13.68
2022-11-12T13:30:02.955Z,13.64
2022-11-12T13:33:07.628Z,13.50
2022-11-12T13:36:28.094Z,13.35
2022-11-12T13:39:25.968Z,13.37
2022-11-12T13:42:59.491Z,13.34
2022-11-12T13:46:01.309Z,13.30
2022-11-12T13:49:03.651Z,13.18
2022-11-12T13:52:01.990Z,13.07
2022-11-12T13:55:03.984Z,13.00
2022-11-12T13:58:03.026Z,13.01
2022-11-12T14:01:02.988Z,12.92
2022-11-12T14:04:01.667Z,12.89
2022-11-12T14:07:05.364Z,12.83
2022-11-12T14:10:11.655Z,12.69
2022-11-12T14:13:27.803Z,12.54
2022-11-12T14:16:37.878Z,12.40
2022-11-12T14:20:00.167Z,12.27
2022-11-12T14:23:05.430Z,12.09
2022-11-12T14:26:04.506Z,12.00
2022-11-12T14:29:03.515Z,11.83
2022-11-12T14:32:03.632Z,11.73
2022-11-12T14:37:59.373Z,11.41
2022-11-12T14:41:02.539Z,11.31
2022-11-12T14:44:13.820Z,11.19
2022-11-12T14:47:12.332Z,11.06
2022-11-12T14:50:17.272Z,10.90
2022-11-12T14:53:25.234Z,10.79
2022-11-12T14:56:35.304Z,10.68
2022-11-12T14:59:37.486Z,10.52
2022-11-12T15:02:53.814Z,10.40
2022-11-12T15:05:56.534Z,10.24
2022-11-12T15:09:18.644Z,10.07
2022-11-12T15:12:21.310Z,9.99
2022-11-12T15:15:22.640Z,9.85
2022-11-12T15:18:23.320Z,9.73
2022-11-12T15:21:26.112Z,9.60
2022-11-12T15:24:31.699Z,9.50
2022-11-12T15:27:36.088Z,9.38
2022-11-12T15:30:35.729Z,9.25
2022-11-12T15:33:56.496Z,9.13
2022-11-12T15:36:53.652Z,9.01
2022-11-12T15:39:54.413Z,8.91
2022-11-12T15:42:54.028Z,8.79
2022-11-12T15:45:54.247Z,8.70
2022-11-12T15:48:55.997Z,8.57
2022-11-12T15:51:55.697Z,8.48
2022-11-12T15:54:53.978Z,8.37
2022-11-12T15:57:53.758Z,8.23
2022-11-12T16:00:51.836Z,8.14
2022-11-12T16:03:49.482Z,8.03
2022-11-12T16:06:49.153Z,7.92
2022-11-12T16:09:49.115Z,7.82
2022-11-12T16:12:48.280Z,7.74
2022-11-12T16:15:50.620Z,7.66
2022-11-12T16:18:48.912Z,7.55
2022-11-12T16:21:48.985Z,7.48
2022-11-12T16:25:02.416Z,7.37
2022-11-12T16:28:04.953Z,7.30
2022-11-12T16:31:04.135Z,7.20
2022-11-12T16:34:05.154Z,7.12
2022-11-12T16:37:06.974Z,7.06
2022-11-12T16:40:08.563Z,6.98
2022-11-12T16:43:07.194Z,6.91
2022-11-12T16:46:13.041Z,6.84
2022-11-12T16:49:15.008Z,6.77
2022-11-12T16:52:13.917Z,6.71
2022-11-12T16:55:15.151Z,6.62
2022-11-12T16:58:15.335Z,6.54
2022-11-12T17:01:24.447Z,6.48
2022-11-12T17:04:26.043Z,6.38
2022-11-12T17:07:24.081Z,6.32
2022-11-12T17:10:23.812Z,6.26
2022-11-12T17:13:25.261Z,6.19
2022-11-12T17:16:24.592Z,6.11
2022-11-12T17:19:22.479Z,6.05
2022-11-12T17:22:21.508Z,6.00
2022-11-12T17:25:20.564Z,5.95
2022-11-12T17:28:19.512Z,5.90
2022-11-12T17:31:30.340Z,5.85
2022-11-12T17:34:32.358Z,5.81
2022-11-12T17:37:31.694Z,5.75
2022-11-12T17:40:30.508Z,5.71
2022-11-12T17:43:30.661Z,5.66
2022-11-12T17:46:28.905Z,5.60
2022-11-12T17:49:27.519Z,5.57
2022-11-12T17:52:27.529Z,5.51
2022-11-12T17:55:27.586Z,5.47
2022-11-12T17:58:26.932Z,5.42
2022-11-12T18:01:26.964Z,5.38
2022-11-12T18:04:29.862Z,5.36
2022-11-12T18:07:30.545Z,5.31
2022-11-12T18:10:30.072Z,5.24
2022-11-12T18:13:29.415Z,5.22
2022-11-12T18:16:29.703Z,5.20
2022-11-12T18:19:28.825Z,5.12
2022-11-12T18:22:29.842Z,5.09
2022-11-12T18:25:29.373Z,5.05
2022-11-12T18:28:27.426Z,5.03
2022-11-12T18:31:28.873Z,4.97
2022-11-12T18:34:30.072Z,4.93
2022-11-12T18:37:31.198Z,4.87
2022-11-12T18:40:30.953Z,4.84
2022-11-12T18:43:56.970Z,4.81
2022-11-12T18:46:56.253Z,4.79
2022-11-12T18:49:55.191Z,4.74
2022-11-12T18:52:54.201Z,4.71
2022-11-12T18:55:53.363Z,4.68
2022-11-12T18:58:52.182Z,4.66
2022-11-12T19:01:51.255Z,4.62
2022-11-12T19:04:51.237Z,4.57
2022-11-12T19:07:50.592Z,4.54
2022-11-12T19:11:01.895Z,4.52
2022-11-12T19:14:00.662Z,4.46
2022-11-12T19:17:02.620Z,4.40
2022-11-12T19:20:13.789Z,4.38
2022-11-12T19:23:12.629Z,4.32
2022-11-12T19:26:14.909Z,4.28
2022-11-12T19:29:13.823Z,4.24
2022-11-12T19:32:13.408Z,4.20
2022-11-12T19:35:12.047Z,4.20
2022-11-12T19:38:10.913Z,4.17
2022-11-12T19:41:18.757Z,4.11
2022-11-12T19:44:20.871Z,4.07
2022-11-12T19:47:19.067Z,4.01
2022-11-12T19:50:24.707Z,3.98
2022-11-12T19:53:23.508Z,3.99
2022-11-12T19:56:22.531Z,3.98
2022-11-12T20:09:46.336Z,3.84
2022-11-12T20:12:48.118Z,3.81
2022-11-12T20:15:47.272Z,3.77
2022-11-12T20:18:50.859Z,3.74
2022-11-12T20:21:50.064Z,3.74
2022-11-12T20:24:49.106Z,3.70
2022-11-12T20:27:48.083Z,3.67
2022-11-12T20:30:49.303Z,3.67
2022-11-12T20:33:50.945Z,3.59
2022-11-12T20:36:49.960Z,3.61
2022-11-12T20:39:49.039Z,3.62
2022-11-12T20:42:51.838Z,3.60
2022-11-12T20:45:52.797Z,3.61
2022-11-12T20:48:53.881Z,3.59
2022-11-12T20:51:52.964Z,3.64
2022-11-12T20:55:03.880Z,3.64
2022-11-12T20:58:02.741Z,3.63
2022-11-12T21:01:04.175Z,3.68
2022-11-12T21:04:02.342Z,3.66
2022-11-12T21:07:22.631Z,3.66
2022-11-12T21:10:21.224Z,3.69
2022-11-12T21:13:20.463Z,3.72
2022-11-12T21:16:21.247Z,3.70
2022-11-12T21:19:19.948Z,3.69
2022-11-12T21:22:18.780Z,3.70
2022-11-12T21:25:17.883Z,3.69
2022-11-12T21:28:16.820Z,3.71
2022-11-12T21:31:19.013Z,3.72
2022-11-12T21:34:19.260Z,3.73
2022-11-12T21:37:18.175Z,3.71
2022-11-12T21:40:16.968Z,3.72
2022-11-12T21:43:15.045Z,3.75
2022-11-12T21:46:16.220Z,3.75
2022-11-12T21:49:37.477Z,3.77
2022-11-12T21:52:36.108Z,3.78
2022-11-12T21:55:35.126Z,3.78
2022-11-12T21:58:36.643Z,3.79
2022-11-12T22:01:34.846Z,3.79
2022-11-12T22:04:33.791Z,3.80
2022-11-12T22:07:52.356Z,3.80
2022-11-12T22:10:51.698Z,3.79
2022-11-12T22:13:49.986Z,3.79
2022-11-12T22:16:48.934Z,3.83
2022-11-12T22:19:47.944Z,3.82
2022-11-12T22:22:46.918Z,3.81
2022-11-12T22:25:46.268Z,3.83
2022-11-12T22:28:45.556Z,3.85
2022-11-12T22:31:46.185Z,3.87
2022-11-12T22:34:49.309Z,3.89
2022-11-12T22:37:48.415Z,3.88
2022-11-12T22:40:46.104Z,3.91
2022-11-12T22:43:47.716Z,3.93
2022-11-12T22:46:46.997Z,3.94
2022-11-12T22:49:47.125Z,3.97
2022-11-12T22:52:50.013Z,4.00
2022-11-12T22:55:49.866Z,4.00
2022-11-12T22:58:51.245Z,4.00
2022-11-12T23:01:53.099Z,4.05
2022-11-12T23:04:54.276Z,4.06
2022-11-12T23:07:52.833Z,4.05
2022-11-12T23:10:55.233Z,4.08
2022-11-12T23:13:54.632Z,4.10
2022-11-12T23:16:53.109Z,4.11
2022-11-12T23:19:52.131Z,4.14
2022-11-12T23:22:53.271Z,4.13
2022-11-12T23:25:51.702Z,4.13
2022-11-12T23:29:03.627Z,4.14
2022-11-12T23:32:03.556Z,4.16
2022-11-12T23:35:04.102Z,4.17
2022-11-12T23:38:02.760Z,4.14
2022-11-12T23:41:02.434Z,4.15
2022-11-12T23:44:01.674Z,4.15
2022-11-12T23:46:59.731Z,4.15
2022-11-12T23:50:00.758Z,4.15
2022-11-12T23:53:11.210Z,4.14
2022-11-12T23:56:15.125Z,4.11
2022-11-12T23:59:13.912Z,4.11
